メインページ
METAR-TAF:

METAR-TAF

空港 :

ジュノー国際空港

ジュノー, アラスカ州, アメリカ合衆国

緯度: 58-21-17N, 経度: 134-34-34W, 海抜: 6m

現時点の気象観測

当レポートは33分前の18:53(UTC)に作成
西/南西の風 6kt
気温 11°C
湿度 62%
気圧 1022 hPa
視程: 16.1km
晴天

METAR: PAJN 181853Z 25006KT 10SM CLR 11/04 A3018 RMK AO2 SLP220 T01060039

時間: 11:26 (19:26 UTC)

予報

当レポートは2時間6分前の17:20(UTC)に作成
予報は18日の 18時(UTC)から 19日の 18時(UTC)まで有効
西/南西の風 7kt
視程: 10km
晴天
19日の 0300時(UTC)から
の風 kt
視程: 10km
晴天

TAF: PAJN 181720Z 1818/1918 24007KT P6SM SKC FM190300 00000KT P6SM SKC

4,000以上の空港の気象観測と天気予報(METAR報とTAF報)

利用可能な観測所は地図上に黄色い丸と赤い丸で示す。

丸の上にカーソルを重ねると観測所名を参照できる。

次にクリックすると気象観測と天気予報を参照できる。

マップの切り替え:黒色「×」印の緑ボタンをクリックして拡大、「-」印の緑ボタンをクリックして縮小、緑色の三角印をクリックして隣りの地図に切り替え


METAR-TAF: